sensor_id;sensor_type;location;lat;lon;timestamp;temperature;humidity
15617;DHT22;7908;51.688;7.130;2023-04-03T00:01:39;0.20;99.90
15617;DHT22;7908;51.688;7.130;2023-04-03T00:04:07;0.20;99.90
15617;DHT22;7908;51.688;7.130;2023-04-03T00:06:37;0.20;99.90
15617;DHT22;7908;51.688;7.130;2023-04-03T00:09:05;0.20;99.90
15617;DHT22;7908;51.688;7.130;2023-04-03T00:11:36;0.20;99.90
15617;DHT22;7908;51.688;7.130;2023-04-03T00:14:05;0.20;99.90
15617;DHT22;7908;51.688;7.130;2023-04-03T00:16:35;0.20;99.90
15617;DHT22;7908;51.688;7.130;2023-04-03T00:19:04;0.20;99.90
15617;DHT22;7908;51.688;7.130;2023-04-03T00:21:33;0.20;99.90
15617;DHT22;7908;51.688;7.130;2023-04-03T00:24:01;0.20;99.90
15617;DHT22;7908;51.688;7.130;2023-04-03T00:26:31;0.20;99.90
15617;DHT22;7908;51.688;7.130;2023-04-03T00:28:59;0.30;99.90
15617;DHT22;7908;51.688;7.130;2023-04-03T00:31:28;0.30;99.90
15617;DHT22;7908;51.688;7.130;2023-04-03T00:33:58;0.30;99.90
15617;DHT22;7908;51.688;7.130;2023-04-03T00:36:27;0.40;99.90
15617;DHT22;7908;51.688;7.130;2023-04-03T00:38:55;0.40;99.90
15617;DHT22;7908;51.688;7.130;2023-04-03T00:41:25;0.50;99.90
15617;DHT22;7908;51.688;7.130;2023-04-03T00:43:53;0.60;99.90
15617;DHT22;7908;51.688;7.130;2023-04-03T00:46:22;0.70;99.90
15617;DHT22;7908;51.688;7.130;2023-04-03T00:49:03;0.90;99.90
15617;DHT22;7908;51.688;7.130;2023-04-03T00:51:32;1.00;99.90
15617;DHT22;7908;51.688;7.130;2023-04-03T00:54:12;1.30;99.90
15617;DHT22;7908;51.688;7.130;2023-04-03T00:56:44;1.50;99.90
15617;DHT22;7908;51.688;7.130;2023-04-03T00:59:15;1.60;99.90
15617;DHT22;7908;51.688;7.130;2023-04-03T01:01:45;1.60;99.90
15617;DHT22;7908;51.688;7.130;2023-04-03T01:04:28;1.60;99.90
15617;DHT22;7908;51.688;7.130;2023-04-03T01:07:00;1.60;99.90
15617;DHT22;7908;51.688;7.130;2023-04-03T01:09:30;1.70;99.90
15617;DHT22;7908;51.688;7.130;2023-04-03T01:12:14;1.70;99.90
15617;DHT22;7908;51.688;7.130;2023-04-03T01:14:44;1.80;99.90
15617;DHT22;7908;51.688;7.130;2023-04-03T01:17:35;1.80;99.90
15617;DHT22;7908;51.688;7.130;2023-04-03T01:23:16;1.90;99.90
15617;DHT22;7908;51.688;7.130;2023-04-03T01:25:47;1.90;99.90
15617;DHT22;7908;51.688;7.130;2023-04-03T01:28:18;1.80;99.90
15617;DHT22;7908;51.688;7.130;2023-04-03T01:30:51;1.90;99.90
15617;DHT22;7908;51.688;7.130;2023-04-03T01:33:22;1.90;99.90
15617;DHT22;7908;51.688;7.130;2023-04-03T01:35:51;2.00;99.90
15617;DHT22;7908;51.688;7.130;2023-04-03T01:38:20;1.90;99.90
15617;DHT22;7908;51.688;7.130;2023-04-03T01:40:48;1.90;99.90
15617;DHT22;7908;51.688;7.130;2023-04-03T01:43:17;2.00;99.90
15617;DHT22;7908;51.688;7.130;2023-04-03T01:45:46;2.10;99.90
15617;DHT22;7908;51.688;7.130;2023-04-03T01:48:17;2.10;99.90
15617;DHT22;7908;51.688;7.130;2023-04-03T01:50:47;2.10;99.90
15617;DHT22;7908;51.688;7.130;2023-04-03T01:53:15;2.00;99.90
15617;DHT22;7908;51.688;7.130;2023-04-03T01:55:44;2.00;99.90
15617;DHT22;7908;51.688;7.130;2023-04-03T01:58:12;2.00;99.90
15617;DHT22;7908;51.688;7.130;2023-04-03T02:00:41;2.00;99.90
15617;DHT22;7908;51.688;7.130;2023-04-03T02:03:10;1.90;99.90
15617;DHT22;7908;51.688;7.130;2023-04-03T02:05:39;1.90;99.90
15617;DHT22;7908;51.688;7.130;2023-04-03T02:08:09;1.90;99.90
15617;DHT22;7908;51.688;7.130;2023-04-03T02:10:38;1.80;99.90
15617;DHT22;7908;51.688;7.130;2023-04-03T02:13:06;1.90;99.90
15617;DHT22;7908;51.688;7.130;2023-04-03T02:15:38;1.90;99.90
15617;DHT22;7908;51.688;7.130;2023-04-03T02:18:07;1.90;99.90
15617;DHT22;7908;51.688;7.130;2023-04-03T02:20:36;1.90;99.90
15617;DHT22;7908;51.688;7.130;2023-04-03T02:23:05;1.80;99.90
15617;DHT22;7908;51.688;7.130;2023-04-03T02:25:35;1.70;99.90
15617;DHT22;7908;51.688;7.130;2023-04-03T02:28:05;1.60;99.90
15617;DHT22;7908;51.688;7.130;2023-04-03T02:30:34;1.60;99.90
15617;DHT22;7908;51.688;7.130;2023-04-03T02:33:03;1.50;99.90
15617;DHT22;7908;51.688;7.130;2023-04-03T02:35:32;1.50;99.90
15617;DHT22;7908;51.688;7.130;2023-04-03T02:38:00;1.50;99.90
15617;DHT22;7908;51.688;7.130;2023-04-03T02:40:29;1.60;99.90
15617;DHT22;7908;51.688;7.130;2023-04-03T02:42:59;1.60;99.90
15617;DHT22;7908;51.688;7.130;2023-04-03T02:45:28;1.60;99.90
15617;DHT22;7908;51.688;7.130;2023-04-03T02:47:56;1.60;99.90
15617;DHT22;7908;51.688;7.130;2023-04-03T02:50:25;1.60;99.90
15617;DHT22;7908;51.688;7.130;2023-04-03T02:52:53;1.70;99.90
15617;DHT22;7908;51.688;7.130;2023-04-03T02:55:22;1.60;99.90
15617;DHT22;7908;51.688;7.130;2023-04-03T02:57:51;1.60;99.90
15617;DHT22;7908;51.688;7.130;2023-04-03T03:00:21;1.70;99.90
15617;DHT22;7908;51.688;7.130;2023-04-03T03:02:50;1.70;99.90
15617;DHT22;7908;51.688;7.130;2023-04-03T03:05:19;1.60;99.90
15617;DHT22;7908;51.688;7.130;2023-04-03T03:07:48;1.60;99.90
15617;DHT22;7908;51.688;7.130;2023-04-03T03:10:17;1.60;99.90
15617;DHT22;7908;51.688;7.130;2023-04-03T03:12:45;1.60;99.90
15617;DHT22;7908;51.688;7.130;2023-04-03T03:15:14;1.60;99.90
15617;DHT22;7908;51.688;7.130;2023-04-03T03:17:45;1.60;99.90
15617;DHT22;7908;51.688;7.130;2023-04-03T03:20:14;1.50;99.90
15617;DHT22;7908;51.688;7.130;2023-04-03T03:22:43;1.50;99.90
15617;DHT22;7908;51.688;7.130;2023-04-03T03:25:12;1.50;99.90
15617;DHT22;7908;51.688;7.130;2023-04-03T03:27:40;1.50;99.90
15617;DHT22;7908;51.688;7.130;2023-04-03T03:30:09;1.40;99.90
15617;DHT22;7908;51.688;7.130;2023-04-03T03:32:38;1.40;99.90
15617;DHT22;7908;51.688;7.130;2023-04-03T03:35:09;1.40;99.90
15617;DHT22;7908;51.688;7.130;2023-04-03T03:37:37;1.40;99.90
15617;DHT22;7908;51.688;7.130;2023-04-03T03:40:07;1.40;99.90
15617;DHT22;7908;51.688;7.130;2023-04-03T03:42:36;1.40;99.90
15617;DHT22;7908;51.688;7.130;2023-04-03T03:45:05;1.30;99.90
15617;DHT22;7908;51.688;7.130;2023-04-03T03:47:34;1.30;99.90
15617;DHT22;7908;51.688;7.130;2023-04-03T03:50:05;1.30;99.90
15617;DHT22;7908;51.688;7.130;2023-04-03T03:52:35;1.30;99.90
15617;DHT22;7908;51.688;7.130;2023-04-03T03:55:04;1.30;99.90
15617;DHT22;7908;51.688;7.130;2023-04-03T03:57:33;1.30;99.90
15617;DHT22;7908;51.688;7.130;2023-04-03T04:00:02;1.20;99.90
15617;DHT22;7908;51.688;7.130;2023-04-03T04:02:31;1.20;99.90
15617;DHT22;7908;51.688;7.130;2023-04-03T04:05:00;1.20;99.90
15617;DHT22;7908;51.688;7.130;2023-04-03T04:07:28;1.20;99.90
15617;DHT22;7908;51.688;7.130;2023-04-03T04:09:58;1.10;99.90
15617;DHT22;7908;51.688;7.130;2023-04-03T04:12:27;1.10;99.90
15617;DHT22;7908;51.688;7.130;2023-04-03T04:14:56;1.10;99.90
15617;DHT22;7908;51.688;7.130;2023-04-03T04:17:25;1.10;99.90
15617;DHT22;7908;51.688;7.130;2023-04-03T04:19:53;1.00;99.90
15617;DHT22;7908;51.688;7.130;2023-04-03T04:22:22;1.00;99.90
15617;DHT22;7908;51.688;7.130;2023-04-03T04:24:51;1.00;99.90
15617;DHT22;7908;51.688;7.130;2023-04-03T04:27:20;1.00;99.90
15617;DHT22;7908;51.688;7.130;2023-04-03T04:29:49;1.00;99.90
15617;DHT22;7908;51.688;7.130;2023-04-03T04:32:18;1.00;99.90
15617;DHT22;7908;51.688;7.130;2023-04-03T04:34:46;0.90;99.90
15617;DHT22;7908;51.688;7.130;2023-04-03T04:37:15;0.90;99.90
15617;DHT22;7908;51.688;7.130;2023-04-03T04:39:43;0.90;99.90
15617;DHT22;7908;51.688;7.130;2023-04-03T04:42:12;0.90;99.90
15617;DHT22;7908;51.688;7.130;2023-04-03T04:44:45;0.80;99.90
15617;DHT22;7908;51.688;7.130;2023-04-03T04:47:13;0.80;99.90
15617;DHT22;7908;51.688;7.130;2023-04-03T04:49:42;1.30;99.90
15617;DHT22;7908;51.688;7.130;2023-04-03T04:52:11;0.70;99.90
15617;DHT22;7908;51.688;7.130;2023-04-03T04:54:39;0.70;99.90
15617;DHT22;7908;51.688;7.130;2023-04-03T04:57:08;0.70;99.90
15617;DHT22;7908;51.688;7.130;2023-04-03T04:59:38;0.70;99.90
15617;DHT22;7908;51.688;7.130;2023-04-03T05:02:09;0.70;99.90
15617;DHT22;7908;51.688;7.130;2023-04-03T05:04:38;0.70;99.90
15617;DHT22;7908;51.688;7.130;2023-04-03T05:07:06;0.60;99.90
15617;DHT22;7908;51.688;7.130;2023-04-03T05:09:36;0.60;99.90
15617;DHT22;7908;51.688;7.130;2023-04-03T05:12:04;0.60;99.90
15617;DHT22;7908;51.688;7.130;2023-04-03T05:14:33;0.60;99.90
15617;DHT22;7908;51.688;7.130;2023-04-03T05:17:02;0.60;99.90
15617;DHT22;7908;51.688;7.130;2023-04-03T05:19:32;0.60;99.90
15617;DHT22;7908;51.688;7.130;2023-04-03T05:22:00;0.60;99.90
15617;DHT22;7908;51.688;7.130;2023-04-03T05:24:29;0.60;99.90
15617;DHT22;7908;51.688;7.130;2023-04-03T05:26:58;0.60;99.90
15617;DHT22;7908;51.688;7.130;2023-04-03T05:29:26;0.50;99.90
15617;DHT22;7908;51.688;7.130;2023-04-03T05:31:55;0.60;99.90
15617;DHT22;7908;51.688;7.130;2023-04-03T05:34:24;0.60;99.90
15617;DHT22;7908;51.688;7.130;2023-04-03T05:36:54;0.60;99.90
15617;DHT22;7908;51.688;7.130;2023-04-03T05:39:23;0.60;99.90
15617;DHT22;7908;51.688;7.130;2023-04-03T05:41:52;0.60;99.90
15617;DHT22;7908;51.688;7.130;2023-04-03T05:44:21;0.60;99.90
15617;DHT22;7908;51.688;7.130;2023-04-03T05:46:49;0.60;99.90
15617;DHT22;7908;51.688;7.130;2023-04-03T05:49:18;0.60;99.90
15617;DHT22;7908;51.688;7.130;2023-04-03T05:51:47;0.60;99.90
15617;DHT22;7908;51.688;7.130;2023-04-03T05:54:20;0.60;99.90
15617;DHT22;7908;51.688;7.130;2023-04-03T05:56:50;0.70;99.90
15617;DHT22;7908;51.688;7.130;2023-04-03T05:59:19;0.70;99.90
15617;DHT22;7908;51.688;7.130;2023-04-03T06:01:48;0.70;99.90
15617;DHT22;7908;51.688;7.130;2023-04-03T06:04:17;0.80;99.90
15617;DHT22;7908;51.688;7.130;2023-04-03T06:06:48;0.80;99.90
15617;DHT22;7908;51.688;7.130;2023-04-03T06:09:22;0.80;99.90
15617;DHT22;7908;51.688;7.130;2023-04-03T06:11:51;0.90;99.90
15617;DHT22;7908;51.688;7.130;2023-04-03T06:14:20;1.00;99.90
15617;DHT22;7908;51.688;7.130;2023-04-03T06:16:49;1.00;99.90
15617;DHT22;7908;51.688;7.130;2023-04-03T06:19:18;1.00;99.90
15617;DHT22;7908;51.688;7.130;2023-04-03T06:21:47;1.10;99.90
15617;DHT22;7908;51.688;7.130;2023-04-03T06:24:17;1.10;99.90
15617;DHT22;7908;51.688;7.130;2023-04-03T06:26:47;1.20;99.90
15617;DHT22;7908;51.688;7.130;2023-04-03T06:29:17;1.20;99.90
15617;DHT22;7908;51.688;7.130;2023-04-03T06:31:45;1.30;99.90
15617;DHT22;7908;51.688;7.130;2023-04-03T06:34:14;1.40;99.90
15617;DHT22;7908;51.688;7.130;2023-04-03T06:36:44;1.40;99.90
15617;DHT22;7908;51.688;7.130;2023-04-03T06:39:14;1.50;99.90
15617;DHT22;7908;51.688;7.130;2023-04-03T06:41:43;1.50;99.90
15617;DHT22;7908;51.688;7.130;2023-04-03T06:44:13;1.60;99.90
15617;DHT22;7908;51.688;7.130;2023-04-03T06:46:43;1.60;99.90
15617;DHT22;7908;51.688;7.130;2023-04-03T06:49:12;1.60;99.90
15617;DHT22;7908;51.688;7.130;2023-04-03T06:51:42;1.70;99.90
15617;DHT22;7908;51.688;7.130;2023-04-03T06:54:10;1.80;99.90
15617;DHT22;7908;51.688;7.130;2023-04-03T06:56:40;1.80;99.90
15617;DHT22;7908;51.688;7.130;2023-04-03T06:59:09;1.80;99.90
15617;DHT22;7908;51.688;7.130;2023-04-03T07:01:40;1.90;99.90
15617;DHT22;7908;51.688;7.130;2023-04-03T07:04:09;1.90;99.90
15617;DHT22;7908;51.688;7.130;2023-04-03T07:06:38;2.00;99.90
15617;DHT22;7908;51.688;7.130;2023-04-03T07:09:06;2.10;99.90
15617;DHT22;7908;51.688;7.130;2023-04-03T07:11:36;2.10;99.90
15617;DHT22;7908;51.688;7.130;2023-04-03T07:14:04;2.10;99.90
15617;DHT22;7908;51.688;7.130;2023-04-03T07:16:35;2.20;99.90
15617;DHT22;7908;51.688;7.130;2023-04-03T07:19:08;2.20;99.90
15617;DHT22;7908;51.688;7.130;2023-04-03T07:21:37;2.30;99.90
15617;DHT22;7908;51.688;7.130;2023-04-03T07:24:06;2.30;99.90
15617;DHT22;7908;51.688;7.130;2023-04-03T07:26:40;2.40;99.90
15617;DHT22;7908;51.688;7.130;2023-04-03T07:29:10;2.30;99.90
15617;DHT22;7908;51.688;7.130;2023-04-03T07:31:39;2.40;99.90
15617;DHT22;7908;51.688;7.130;2023-04-03T07:34:10;2.40;99.90
15617;DHT22;7908;51.688;7.130;2023-04-03T07:36:38;2.40;99.90
15617;DHT22;7908;51.688;7.130;2023-04-03T07:39:07;2.50;99.90
15617;DHT22;7908;51.688;7.130;2023-04-03T07:41:36;2.50;99.90
15617;DHT22;7908;51.688;7.130;2023-04-03T07:44:05;2.50;99.90
15617;DHT22;7908;51.688;7.130;2023-04-03T07:46:37;2.60;99.90
15617;DHT22;7908;51.688;7.130;2023-04-03T07:49:06;2.70;99.90
15617;DHT22;7908;51.688;7.130;2023-04-03T07:51:36;2.70;99.90
15617;DHT22;7908;51.688;7.130;2023-04-03T07:54:05;2.80;99.90
15617;DHT22;7908;51.688;7.130;2023-04-03T07:56:34;2.90;99.90
15617;DHT22;7908;51.688;7.130;2023-04-03T07:59:03;3.00;99.90
15617;DHT22;7908;51.688;7.130;2023-04-03T08:01:32;3.10;99.90
15617;DHT22;7908;51.688;7.130;2023-04-03T08:04:01;3.10;99.90
15617;DHT22;7908;51.688;7.130;2023-04-03T08:06:31;3.20;99.90
15617;DHT22;7908;51.688;7.130;2023-04-03T08:09:14;3.20;99.90
15617;DHT22;7908;51.688;7.130;2023-04-03T08:11:44;3.20;99.90
15617;DHT22;7908;51.688;7.130;2023-04-03T08:14:14;3.30;99.90
15617;DHT22;7908;51.688;7.130;2023-04-03T08:16:46;3.30;99.90
15617;DHT22;7908;51.688;7.130;2023-04-03T08:19:15;3.40;99.90
15617;DHT22;7908;51.688;7.130;2023-04-03T08:21:53;3.50;99.90
15617;DHT22;7908;51.688;7.130;2023-04-03T08:24:25;3.60;99.90
15617;DHT22;7908;51.688;7.130;2023-04-03T08:26:54;3.70;99.90
15617;DHT22;7908;51.688;7.130;2023-04-03T08:29:23;3.80;99.90
15617;DHT22;7908;51.688;7.130;2023-04-03T08:31:52;3.80;99.90
15617;DHT22;7908;51.688;7.130;2023-04-03T08:34:21;3.80;99.90
15617;DHT22;7908;51.688;7.130;2023-04-03T08:36:50;3.90;99.90
15617;DHT22;7908;51.688;7.130;2023-04-03T08:39:19;3.80;99.90
15617;DHT22;7908;51.688;7.130;2023-04-03T08:41:49;3.80;99.90
15617;DHT22;7908;51.688;7.130;2023-04-03T08:44:24;3.90;99.90
15617;DHT22;7908;51.688;7.130;2023-04-03T08:47:04;3.90;99.90
15617;DHT22;7908;51.688;7.130;2023-04-03T08:49:40;3.90;99.90
15617;DHT22;7908;51.688;7.130;2023-04-03T08:52:18;4.00;99.90
15617;DHT22;7908;51.688;7.130;2023-04-03T08:54:51;4.10;99.90
15617;DHT22;7908;51.688;7.130;2023-04-03T08:57:28;4.10;99.90
15617;DHT22;7908;51.688;7.130;2023-04-03T09:00:00;4.20;99.90
15617;DHT22;7908;51.688;7.130;2023-04-03T09:02:34;4.30;99.90
15617;DHT22;7908;51.688;7.130;2023-04-03T09:05:12;4.30;99.90
15617;DHT22;7908;51.688;7.130;2023-04-03T09:07:44;4.30;99.90
15617;DHT22;7908;51.688;7.130;2023-04-03T09:10:23;4.40;99.90
15617;DHT22;7908;51.688;7.130;2023-04-03T09:12:59;4.50;99.90
15617;DHT22;7908;51.688;7.130;2023-04-03T09:15:31;4.50;99.90
15617;DHT22;7908;51.688;7.130;2023-04-03T09:18:12;4.50;99.90
15617;DHT22;7908;51.688;7.130;2023-04-03T09:20:48;4.60;99.90
15617;DHT22;7908;51.688;7.130;2023-04-03T09:23:26;4.60;99.90
15617;DHT22;7908;51.688;7.130;2023-04-03T09:26:01;4.60;99.90
15617;DHT22;7908;51.688;7.130;2023-04-03T09:28:37;4.70;99.90
15617;DHT22;7908;51.688;7.130;2023-04-03T09:31:21;4.70;99.90
15617;DHT22;7908;51.688;7.130;2023-04-03T09:33:53;4.80;99.90
15617;DHT22;7908;51.688;7.130;2023-04-03T09:36:43;5.00;99.90
15617;DHT22;7908;51.688;7.130;2023-04-03T09:39:15;5.20;99.90
15617;DHT22;7908;51.688;7.130;2023-04-03T09:41:57;5.20;99.90
15617;DHT22;7908;51.688;7.130;2023-04-03T09:44:30;5.10;99.90
15617;DHT22;7908;51.688;7.130;2023-04-03T09:46:59;5.10;99.90
15617;DHT22;7908;51.688;7.130;2023-04-03T09:49:28;5.20;99.90
15617;DHT22;7908;51.688;7.130;2023-04-03T09:52:05;5.30;99.90
15617;DHT22;7908;51.688;7.130;2023-04-03T09:54:46;5.50;99.90
15617;DHT22;7908;51.688;7.130;2023-04-03T09:57:15;5.60;99.50
15617;DHT22;7908;51.688;7.130;2023-04-03T09:59:56;5.60;99.80
15617;DHT22;7908;51.688;7.130;2023-04-03T10:02:35;5.60;99.30
15617;DHT22;7908;51.688;7.130;2023-04-03T10:05:05;5.70;99.90
15617;DHT22;7908;51.688;7.130;2023-04-03T10:08:08;5.90;99.90
15617;DHT22;7908;51.688;7.130;2023-04-03T10:10:37;5.90;99.90
15617;DHT22;7908;51.688;7.130;2023-04-03T10:13:09;5.90;98.60
15617;DHT22;7908;51.688;7.130;2023-04-03T10:15:51;5.90;99.70
15617;DHT22;7908;51.688;7.130;2023-04-03T10:18:32;6.00;99.60
15617;DHT22;7908;51.688;7.130;2023-04-03T10:21:13;6.10;99.60
15617;DHT22;7908;51.688;7.130;2023-04-03T10:23:59;6.10;99.00
15617;DHT22;7908;51.688;7.130;2023-04-03T10:26:32;6.10;97.00
15617;DHT22;7908;51.688;7.130;2023-04-03T10:29:13;6.10;97.00
15617;DHT22;7908;51.688;7.130;2023-04-03T10:31:50;6.10;97.40
15617;DHT22;7908;51.688;7.130;2023-04-03T10:34:24;6.00;97.50
15617;DHT22;7908;51.688;7.130;2023-04-03T10:37:02;6.10;96.90
15617;DHT22;7908;51.688;7.130;2023-04-03T10:39:39;6.10;96.50
15617;DHT22;7908;51.688;7.130;2023-04-03T10:42:18;6.00;96.10
15617;DHT22;7908;51.688;7.130;2023-04-03T10:47:46;6.10;97.10
15617;DHT22;7908;51.688;7.130;2023-04-03T10:50:29;6.30;96.50
15617;DHT22;7908;51.688;7.130;2023-04-03T10:53:04;6.40;96.30
15617;DHT22;7908;51.688;7.130;2023-04-03T10:55:40;6.40;97.00
15617;DHT22;7908;51.688;7.130;2023-04-03T10:58:17;6.40;96.80
15617;DHT22;7908;51.688;7.130;2023-04-03T11:00:49;6.50;95.70
15617;DHT22;7908;51.688;7.130;2023-04-03T11:03:29;6.50;95.80
15617;DHT22;7908;51.688;7.130;2023-04-03T11:06:01;6.60;96.10
15617;DHT22;7908;51.688;7.130;2023-04-03T11:08:34;6.60;96.50
15617;DHT22;7908;51.688;7.130;2023-04-03T11:11:09;6.60;95.40
15617;DHT22;7908;51.688;7.130;2023-04-03T11:13:43;6.60;95.50
15617;DHT22;7908;51.688;7.130;2023-04-03T11:16:16;6.60;95.50
15617;DHT22;7908;51.688;7.130;2023-04-03T11:18:54;6.60;95.80
15617;DHT22;7908;51.688;7.130;2023-04-03T11:21:28;6.80;95.50
15617;DHT22;7908;51.688;7.130;2023-04-03T11:23:59;6.80;95.50
15617;DHT22;7908;51.688;7.130;2023-04-03T11:26:36;6.70;94.00
15617;DHT22;7908;51.688;7.130;2023-04-03T11:29:09;6.70;94.30
15617;DHT22;7908;51.688;7.130;2023-04-03T11:32:17;6.60;94.60
15617;DHT22;7908;51.688;7.130;2023-04-03T11:34:56;6.80;96.60
15617;DHT22;7908;51.688;7.130;2023-04-03T11:37:31;6.90;94.70
15617;DHT22;7908;51.688;7.130;2023-04-03T11:40:06;6.80;93.70
15617;DHT22;7908;51.688;7.130;2023-04-03T11:42:40;6.90;94.60
15617;DHT22;7908;51.688;7.130;2023-04-03T11:54:50;6.90;94.60
15617;DHT22;7908;51.688;7.130;2023-04-03T11:57:44;7.00;94.10
15617;DHT22;7908;51.688;7.130;2023-04-03T12:00:49;7.00;93.60
15617;DHT22;7908;51.688;7.130;2023-04-03T12:03:58;7.10;93.90
15617;DHT22;7908;51.688;7.130;2023-04-03T12:13:01;7.10;93.70
15617;DHT22;7908;51.688;7.130;2023-04-03T12:15:51;7.10;93.70
15617;DHT22;7908;51.688;7.130;2023-04-03T12:22:14;7.40;93.80
15617;DHT22;7908;51.688;7.130;2023-04-03T12:24:44;7.50;92.90
15617;DHT22;7908;51.688;7.130;2023-04-03T12:27:27;7.50;93.40
15617;DHT22;7908;51.688;7.130;2023-04-03T12:30:05;7.60;93.10
15617;DHT22;7908;51.688;7.130;2023-04-03T12:35:44;7.50;93.20
15617;DHT22;7908;51.688;7.130;2023-04-03T12:41:21;7.50;92.20
15617;DHT22;7908;51.688;7.130;2023-04-03T12:44:01;7.50;94.00
15617;DHT22;7908;51.688;7.130;2023-04-03T12:46:39;7.60;92.20
15617;DHT22;7908;51.688;7.130;2023-04-03T12:49:33;7.50;92.40
15617;DHT22;7908;51.688;7.130;2023-04-03T12:52:05;7.50;91.70
15617;DHT22;7908;51.688;7.130;2023-04-03T12:54:42;7.40;92.20
15617;DHT22;7908;51.688;7.130;2023-04-03T12:57:13;7.40;93.00
15617;DHT22;7908;51.688;7.130;2023-04-03T12:59:45;7.50;93.50
15617;DHT22;7908;51.688;7.130;2023-04-03T13:02:26;7.50;93.20
15617;DHT22;7908;51.688;7.130;2023-04-03T13:04:57;7.50;93.20
15617;DHT22;7908;51.688;7.130;2023-04-03T13:07:29;7.60;94.30
15617;DHT22;7908;51.688;7.130;2023-04-03T13:10:09;7.60;93.10
15617;DHT22;7908;51.688;7.130;2023-04-03T13:12:47;7.60;92.30
15617;DHT22;7908;51.688;7.130;2023-04-03T13:15:19;7.50;92.70
15617;DHT22;7908;51.688;7.130;2023-04-03T13:17:52;7.50;92.50
15617;DHT22;7908;51.688;7.130;2023-04-03T13:20:25;7.50;93.00
15617;DHT22;7908;51.688;7.130;2023-04-03T13:22:57;7.60;94.00
15617;DHT22;7908;51.688;7.130;2023-04-03T13:25:29;7.70;94.30
15617;DHT22;7908;51.688;7.130;2023-04-03T13:28:02;7.80;92.50
15617;DHT22;7908;51.688;7.130;2023-04-03T13:30:41;7.80;92.00
15617;DHT22;7908;51.688;7.130;2023-04-03T13:33:28;7.70;92.20
15617;DHT22;7908;51.688;7.130;2023-04-03T13:36:03;7.80;91.90
15617;DHT22;7908;51.688;7.130;2023-04-03T13:38:32;7.80;91.70
15617;DHT22;7908;51.688;7.130;2023-04-03T13:41:20;7.80;92.10
15617;DHT22;7908;51.688;7.130;2023-04-03T13:43:50;7.70;92.20
15617;DHT22;7908;51.688;7.130;2023-04-03T13:46:27;7.70;93.30
15617;DHT22;7908;51.688;7.130;2023-04-03T13:49:18;7.80;92.90
15617;DHT22;7908;51.688;7.130;2023-04-03T13:51:47;7.90;92.30
15617;DHT22;7908;51.688;7.130;2023-04-03T13:54:37;7.90;91.60
15617;DHT22;7908;51.688;7.130;2023-04-03T13:57:13;7.90;92.10
15617;DHT22;7908;51.688;7.130;2023-04-03T13:59:43;7.90;92.20
15617;DHT22;7908;51.688;7.130;2023-04-03T14:02:16;7.80;92.40
15617;DHT22;7908;51.688;7.130;2023-04-03T14:04:51;7.90;93.30
15617;DHT22;7908;51.688;7.130;2023-04-03T14:07:24;7.90;91.60
15617;DHT22;7908;51.688;7.130;2023-04-03T14:09:54;7.80;91.50
15617;DHT22;7908;51.688;7.130;2023-04-03T14:12:26;7.70;92.20
15617;DHT22;7908;51.688;7.130;2023-04-03T14:15:03;7.70;92.50
15617;DHT22;7908;51.688;7.130;2023-04-03T14:17:32;7.70;92.10
15617;DHT22;7908;51.688;7.130;2023-04-03T14:20:05;7.70;92.90
15617;DHT22;7908;51.688;7.130;2023-04-03T14:22:36;7.80;93.40
15617;DHT22;7908;51.688;7.130;2023-04-03T14:25:05;7.80;92.90
15617;DHT22;7908;51.688;7.130;2023-04-03T14:27:38;7.90;92.90
15617;DHT22;7908;51.688;7.130;2023-04-03T14:30:12;7.90;92.40
15617;DHT22;7908;51.688;7.130;2023-04-03T14:32:44;7.90;92.50
15617;DHT22;7908;51.688;7.130;2023-04-03T14:35:17;7.80;92.40
15617;DHT22;7908;51.688;7.130;2023-04-03T14:37:47;7.80;91.80
15617;DHT22;7908;51.688;7.130;2023-04-03T14:40:19;7.80;92.20
15617;DHT22;7908;51.688;7.130;2023-04-03T14:42:48;7.80;91.90
15617;DHT22;7908;51.688;7.130;2023-04-03T14:45:17;7.70;91.30
15617;DHT22;7908;51.688;7.130;2023-04-03T14:47:48;7.70;92.20
15617;DHT22;7908;51.688;7.130;2023-04-03T14:50:22;7.70;91.80
15617;DHT22;7908;51.688;7.130;2023-04-03T14:52:54;7.70;91.70
15617;DHT22;7908;51.688;7.130;2023-04-03T14:55:25;7.70;92.70
15617;DHT22;7908;51.688;7.130;2023-04-03T14:57:55;7.80;92.40
15617;DHT22;7908;51.688;7.130;2023-04-03T15:00:24;7.80;92.20
15617;DHT22;7908;51.688;7.130;2023-04-03T15:02:53;7.70;92.00
15617;DHT22;7908;51.688;7.130;2023-04-03T15:05:23;7.70;92.30
15617;DHT22;7908;51.688;7.130;2023-04-03T15:07:57;7.80;92.50
15617;DHT22;7908;51.688;7.130;2023-04-03T15:10:29;7.80;93.10
15617;DHT22;7908;51.688;7.130;2023-04-03T15:12:58;7.80;92.60
15617;DHT22;7908;51.688;7.130;2023-04-03T15:15:29;7.70;92.00
15617;DHT22;7908;51.688;7.130;2023-04-03T15:17:59;7.70;92.50
15617;DHT22;7908;51.688;7.130;2023-04-03T15:20:30;7.70;93.10
15617;DHT22;7908;51.688;7.130;2023-04-03T15:23:01;7.70;93.20
15617;DHT22;7908;51.688;7.130;2023-04-03T15:25:32;7.70;93.50
15617;DHT22;7908;51.688;7.130;2023-04-03T15:28:01;7.70;92.30
15617;DHT22;7908;51.688;7.130;2023-04-03T15:30:36;7.70;92.40
15617;DHT22;7908;51.688;7.130;2023-04-03T15:33:08;7.60;92.10
15617;DHT22;7908;51.688;7.130;2023-04-03T15:35:38;7.50;93.00
15617;DHT22;7908;51.688;7.130;2023-04-03T15:38:08;7.50;92.50
15617;DHT22;7908;51.688;7.130;2023-04-03T15:40:37;7.50;93.30
15617;DHT22;7908;51.688;7.130;2023-04-03T15:43:07;7.60;92.70
15617;DHT22;7908;51.688;7.130;2023-04-03T15:45:37;7.50;92.60
15617;DHT22;7908;51.688;7.130;2023-04-03T15:48:07;7.50;92.70
15617;DHT22;7908;51.688;7.130;2023-04-03T15:50:38;7.40;93.20
15617;DHT22;7908;51.688;7.130;2023-04-03T15:53:07;7.50;93.70
15617;DHT22;7908;51.688;7.130;2023-04-03T15:55:37;7.50;94.40
15617;DHT22;7908;51.688;7.130;2023-04-03T15:58:06;7.50;93.40
15617;DHT22;7908;51.688;7.130;2023-04-03T16:00:35;7.50;93.00
15617;DHT22;7908;51.688;7.130;2023-04-03T16:03:07;7.40;92.60
15617;DHT22;7908;51.688;7.130;2023-04-03T16:05:39;7.40;92.90
15617;DHT22;7908;51.688;7.130;2023-04-03T16:08:08;7.40;93.60
15617;DHT22;7908;51.688;7.130;2023-04-03T16:10:38;7.40;93.50
15617;DHT22;7908;51.688;7.130;2023-04-03T16:13:08;7.40;93.50
15617;DHT22;7908;51.688;7.130;2023-04-03T16:15:37;7.40;93.50
15617;DHT22;7908;51.688;7.130;2023-04-03T16:18:07;7.40;93.00
15617;DHT22;7908;51.688;7.130;2023-04-03T16:20:38;7.40;92.20
15617;DHT22;7908;51.688;7.130;2023-04-03T16:23:07;7.40;92.30
15617;DHT22;7908;51.688;7.130;2023-04-03T16:25:36;7.30;92.10
15617;DHT22;7908;51.688;7.130;2023-04-03T16:28:07;7.30;92.20
15617;DHT22;7908;51.688;7.130;2023-04-03T16:30:36;7.30;92.50
15617;DHT22;7908;51.688;7.130;2023-04-03T16:33:05;7.30;92.50
15617;DHT22;7908;51.688;7.130;2023-04-03T16:35:34;7.30;92.80
15617;DHT22;7908;51.688;7.130;2023-04-03T16:38:07;7.20;92.90
15617;DHT22;7908;51.688;7.130;2023-04-03T16:40:39;7.20;92.70
15617;DHT22;7908;51.688;7.130;2023-04-03T16:43:08;7.20;92.30
15617;DHT22;7908;51.688;7.130;2023-04-03T16:45:37;7.20;92.60
15617;DHT22;7908;51.688;7.130;2023-04-03T16:48:07;7.10;92.40
15617;DHT22;7908;51.688;7.130;2023-04-03T16:50:36;7.10;92.60
15617;DHT22;7908;51.688;7.130;2023-04-03T16:53:06;7.10;92.90
15617;DHT22;7908;51.688;7.130;2023-04-03T16:55:38;7.10;93.40
15617;DHT22;7908;51.688;7.130;2023-04-03T16:58:08;7.10;93.50
15617;DHT22;7908;51.688;7.130;2023-04-03T17:00:37;7.00;93.20
15617;DHT22;7908;51.688;7.130;2023-04-03T17:03:09;7.00;93.20
15617;DHT22;7908;51.688;7.130;2023-04-03T17:05:38;7.00;92.70